Time;durP1;ratioP1;P1;durP2;ratioP2;P2;SDS_P1;SDS_P2;PMS_P1;PMS_P2;Temp;Humidity;BMP_temperature;BMP_pressure;BME280_temperature;BME280_humidity;BME280_pressure;Samples;Min_cycle;Max_cycle;Signal;HPM_P1;HPM_P2
2023/07/23 00:01:15;;;;;;;5.82;2.05;;;;;;;;;;6066053;23;20049;-82
2023/07/23 00:03:40;;;;;;;7.07;2.22;;;;;;;;;;6067352;23;20003;-81
2023/07/23 00:06:05;;;;;;;5.32;2.28;;;;;;;;;;6065919;23;20431;-81
2023/07/23 00:08:31;;;;;;;4.22;2.10;;;;;;;;;;6067034;23;20030;-81
2023/07/23 00:10:58;;;;;;;4.15;2.20;;;;;;;;;;6065882;23;20431;-82
2023/07/23 00:13:24;;;;;;;6.28;2.08;;;;;;;;;;6065836;23;20391;-81
2023/07/23 00:15:49;;;;;;;6.22;2.10;;;;;;;;;;6067098;23;19999;-81
2023/07/23 00:18:15;;;;;;;6.15;2.20;;;;;;;;;;6066628;23;20159;-82
2023/07/23 00:20:40;;;;;;;3.47;1.92;;;;;;;;;;6066170;23;20003;-82
2023/07/23 00:23:06;;;;;;;4.85;2.10;;;;;;;;;;6067815;23;20043;-81
2023/07/23 00:25:31;;;;;;;3.15;1.73;;;;;;;;;;6068845;23;19995;-81
2023/07/23 00:27:56;;;;;;;4.18;2.10;;;;;;;;;;6068237;23;20010;-82
2023/07/23 00:30:21;;;;;;;5.65;1.60;;;;;;;;;;6067166;23;20102;-82
2023/07/23 00:32:47;;;;;;;6.82;2.50;;;;;;;;;;6091670;23;20003;-82
2023/07/23 00:35:14;;;;;;;5.53;2.10;;;;;;;;;;6069049;23;20435;-81
2023/07/23 00:37:42;;;;;;;4.50;2.05;;;;;;;;;;6072607;23;19995;-81
2023/07/23 00:40:09;;;;;;;4.38;2.00;;;;;;;;;;6073525;23;20066;-81
2023/07/23 00:42:37;;;;;;;4.88;1.90;;;;;;;;;;6069986;23;20003;-81
2023/07/23 00:45:09;;;;;;;6.00;2.13;;;;;;;;;;6093650;23;20015;-81
2023/07/23 00:47:38;;;;;;;5.75;1.80;;;;;;;;;;6066321;23;20003;-81
2023/07/23 00:50:03;;;;;;;4.15;2.05;;;;;;;;;;6066569;23;20435;-81
2023/07/23 00:52:29;;;;;;;4.90;2.15;;;;;;;;;;6091731;23;19999;-82
2023/07/23 00:54:54;;;;;;;5.32;1.83;;;;;;;;;;6067417;23;20415;-81
2023/07/23 00:57:20;;;;;;;3.83;1.98;;;;;;;;;;6065547;23;20420;-81
2023/07/23 00:59:45;;;;;;;2.92;1.60;;;;;;;;;;6065705;23;20434;-81
2023/07/23 01:02:11;;;;;;;4.70;1.75;;;;;;;;;;6065731;23;20007;-82
2023/07/23 01:04:36;;;;;;;5.47;1.98;;;;;;;;;;6065601;23;20003;-81
2023/07/23 01:07:03;;;;;;;5.03;2.20;;;;;;;;;;6067050;23;20005;-81
2023/07/23 01:09:29;;;;;;;6.35;1.90;;;;;;;;;;6066949;23;20301;-81
2023/07/23 01:11:55;;;;;;;7.18;2.63;;;;;;;;;;6067453;23;20090;-81
2023/07/23 01:14:20;;;;;;;4.15;2.20;;;;;;;;;;6069275;23;19999;-81
2023/07/23 01:16:46;;;;;;;5.32;2.13;;;;;;;;;;6067448;23;20438;-81
2023/07/23 01:19:12;;;;;;;7.35;2.78;;;;;;;;;;6068150;23;20027;-81
2023/07/23 01:21:37;;;;;;;6.50;2.35;;;;;;;;;;6069090;23;20380;-81
2023/07/23 01:24:05;;;;;;;4.95;2.20;;;;;;;;;;6067545;23;20446;-81
2023/07/23 01:26:30;;;;;;;5.78;2.33;;;;;;;;;;6069007;23;20391;-81
2023/07/23 01:28:56;;;;;;;6.45;2.63;;;;;;;;;;6067380;23;20003;-81
2023/07/23 01:31:21;;;;;;;8.63;2.60;;;;;;;;;;6068614;23;20428;-81
2023/07/23 01:33:47;;;;;;;6.93;2.55;;;;;;;;;;6068997;23;20098;-81
2023/07/23 01:36:14;;;;;;;6.05;2.20;;;;;;;;;;6067002;23;20276;-81
2023/07/23 01:38:39;;;;;;;7.15;2.50;;;;;;;;;;6068862;23;20062;-81
2023/07/23 01:41:04;;;;;;;7.50;2.25;;;;;;;;;;6067194;23;20010;-81
2023/07/23 01:43:30;;;;;;;7.40;3.08;;;;;;;;;;6068947;23;19999;-81
2023/07/23 01:45:55;;;;;;;6.13;2.53;;;;;;;;;;6068876;23;20026;-83
2023/07/23 01:48:24;;;;;;;6.32;2.53;;;;;;;;;;6042884;23;20056;-81
2023/07/23 01:50:49;;;;;;;5.95;2.25;;;;;;;;;;6042827;23;19999;-81
2023/07/23 01:53:15;;;;;;;6.55;2.42;;;;;;;;;;6044090;23;20010;-81
2023/07/23 01:55:40;;;;;;;5.55;2.65;;;;;;;;;;6069723;23;19999;-81
2023/07/23 01:58:05;;;;;;;6.03;2.20;;;;;;;;;;6072579;23;19991;-80
2023/07/23 02:00:31;;;;;;;5.90;2.33;;;;;;;;;;6071709;23;20423;-81
2023/07/23 02:02:56;;;;;;;8.05;2.38;;;;;;;;;;6045706;23;20058;-81
2023/07/23 02:05:22;;;;;;;3.78;2.33;;;;;;;;;;6043918;23;20077;-81
2023/07/23 02:07:47;;;;;;;5.60;2.08;;;;;;;;;;6067272;23;20014;-81
2023/07/23 02:10:17;;;;;;;4.72;2.40;;;;;;;;;;6046943;23;20007;-81
2023/07/23 02:12:43;;;;;;;4.80;2.50;;;;;;;;;;6049116;23;20323;-81
2023/07/23 02:15:09;;;;;;;9.02;2.67;;;;;;;;;;6069623;23;20005;-81
2023/07/23 02:17:34;;;;;;;4.70;2.20;;;;;;;;;;6047846;23;20001;-80
2023/07/23 02:20:00;;;;;;;8.50;2.40;;;;;;;;;;6068088;23;20042;-81
2023/07/23 02:22:25;;;;;;;4.15;2.13;;;;;;;;;;6066460;23;20006;-81
2023/07/23 02:24:50;;;;;;;6.38;2.22;;;;;;;;;;6068184;23;20396;-80
2023/07/23 02:27:15;;;;;;;5.40;2.33;;;;;;;;;;6042980;23;20469;-81
2023/07/23 02:29:41;;;;;;;8.13;2.50;;;;;;;;;;6043150;23;20007;-81
2023/07/23 02:32:07;;;;;;;7.90;2.45;;;;;;;;;;6068220;23;20438;-81
2023/07/23 02:34:32;;;;;;;4.40;2.20;;;;;;;;;;6068332;23;20006;-81
2023/07/23 02:36:57;;;;;;;6.10;2.45;;;;;;;;;;6042460;23;20003;-81
2023/07/23 02:39:26;;;;;;;7.00;2.53;;;;;;;;;;6068601;23;20005;-81
2023/07/23 02:41:51;;;;;;;5.07;2.20;;;;;;;;;;6042979;23;20085;-81
2023/07/23 02:44:19;;;;;;;4.82;2.20;;;;;;;;;;6069554;23;20106;-82
2023/07/23 02:46:44;;;;;;;5.47;2.50;;;;;;;;;;6090794;23;20388;-82
2023/07/23 02:49:09;;;;;;;6.00;2.63;;;;;;;;;;6066163;23;20006;-82
2023/07/23 02:51:35;;;;;;;4.38;2.25;;;;;;;;;;6066610;23;20058;-81
2023/07/23 02:54:00;;;;;;;4.75;2.40;;;;;;;;;;6066530;23;20006;-82
2023/07/23 02:56:25;;;;;;;3.35;2.15;;;;;;;;;;6090496;23;20003;-82
2023/07/23 02:58:53;;;;;;;9.93;2.10;;;;;;;;;;6068245;23;20024;-82
2023/07/23 03:01:21;;;;;;;5.60;2.35;;;;;;;;;;6067794;23;20029;-82
2023/07/23 03:03:47;;;;;;;5.10;2.30;;;;;;;;;;6066252;23;20082;-82
2023/07/23 03:06:13;;;;;;;3.67;2.17;;;;;;;;;;6068217;23;20033;-82
2023/07/23 03:08:38;;;;;;;3.90;2.17;;;;;;;;;;6067121;23;20363;-82
2023/07/23 03:11:06;;;;;;;4.10;2.30;;;;;;;;;;6067849;23;19995;-81
2023/07/23 03:13:32;;;;;;;3.80;2.03;;;;;;;;;;6068428;23;20022;-81
2023/07/23 03:15:57;;;;;;;4.63;2.45;;;;;;;;;;6066953;23;20006;-81
2023/07/23 03:18:22;;;;;;;8.00;2.17;;;;;;;;;;6069128;23;19995;-81
2023/07/23 03:20:48;;;;;;;5.03;2.45;;;;;;;;;;6068880;23;20007;-82
2023/07/23 03:23:13;;;;;;;5.30;1.92;;;;;;;;;;6068666;23;19999;-82
2023/07/23 03:25:39;;;;;;;7.30;2.25;;;;;;;;;;6068358;23;20003;-81
2023/07/23 03:28:04;;;;;;;5.35;1.98;;;;;;;;;;6069831;23;20073;-81
2023/07/23 03:30:30;;;;;;;3.95;2.25;;;;;;;;;;6068892;23;20479;-81
2023/07/23 03:32:55;;;;;;;5.25;2.40;;;;;;;;;;6068998;23;19998;-81
2023/07/23 03:35:21;;;;;;;3.25;2.00;;;;;;;;;;6066137;23;20388;-81
2023/07/23 03:37:46;;;;;;;5.45;1.92;;;;;;;;;;6090336;23;19998;-81
2023/07/23 03:40:11;;;;;;;7.97;2.00;;;;;;;;;;6067347;23;20384;-81
2023/07/23 03:42:37;;;;;;;3.95;2.22;;;;;;;;;;6091293;23;20451;-82
2023/07/23 03:45:02;;;;;;;7.57;2.30;;;;;;;;;;6096825;23;20017;-81
2023/07/23 03:47:27;;;;;;;5.40;2.00;;;;;;;;;;6065866;23;19999;-82
2023/07/23 03:49:53;;;;;;;7.35;2.10;;;;;;;;;;6067412;23;20031;-81
2023/07/23 03:52:18;;;;;;;5.28;2.20;;;;;;;;;;6090065;23;19998;-82
2023/07/23 03:54:44;;;;;;;5.70;1.83;;;;;;;;;;6089520;23;20017;-81
2023/07/23 03:57:09;;;;;;;10.88;1.95;;;;;;;;;;6067387;23;20003;-81
2023/07/23 03:59:38;;;;;;;6.50;2.25;;;;;;;;;;6090093;23;20109;-81
2023/07/23 04:02:04;;;;;;;6.38;1.90;;;;;;;;;;6065658;23;20002;-81
2023/07/23 04:04:29;;;;;;;4.53;1.80;;;;;;;;;;6067339;23;20005;-81
2023/07/23 04:06:54;;;;;;;4.97;1.92;;;;;;;;;;6089510;23;20030;-81
2023/07/23 04:09:20;;;;;;;5.05;2.05;;;;;;;;;;6065779;23;20430;-81
2023/07/23 04:11:47;;;;;;;11.82;1.70;;;;;;;;;;6067603;23;19995;-81
2023/07/23 04:14:12;;;;;;;2.72;1.58;;;;;;;;;;6065437;23;20327;-81
2023/07/23 04:16:41;;;;;;;4.13;1.67;;;;;;;;;;6067543;23;19999;-81
2023/07/23 04:19:06;;;;;;;4.50;1.90;;;;;;;;;;6065793;23;20102;-81
2023/07/23 04:21:31;;;;;;;7.90;2.00;;;;;;;;;;6065852;23;20088;-81
2023/07/23 04:23:57;;;;;;;4.75;2.20;;;;;;;;;;6066453;23;20073;-82
2023/07/23 04:26:26;;;;;;;3.03;1.98;;;;;;;;;;6067008;23;20002;-82
2023/07/23 04:28:51;;;;;;;3.78;2.17;;;;;;;;;;6065628;23;20508;-81
2023/07/23 04:31:17;;;;;;;5.68;2.10;;;;;;;;;;6065885;23;20006;-81
2023/07/23 04:33:45;;;;;;;4.50;2.10;;;;;;;;;;6065400;23;19999;-81
2023/07/23 04:36:13;;;;;;;4.68;1.95;;;;;;;;;;6066949;23;20366;-81
2023/07/23 04:38:39;;;;;;;6.63;1.95;;;;;;;;;;6066339;23;19999;-81
2023/07/23 04:41:05;;;;;;;5.95;2.05;;;;;;;;;;6089928;23;20002;-82
2023/07/23 04:43:30;;;;;;;4.38;1.90;;;;;;;;;;6065835;23;20006;-82
2023/07/23 04:45:55;;;;;;;7.13;1.80;;;;;;;;;;6068321;23;20010;-82
2023/07/23 04:48:21;;;;;;;4.78;2.13;;;;;;;;;;6043315;23;20081;-82
2023/07/23 04:50:54;;;;;;;2.88;1.65;;;;;;;;;;6067830;23;20414;-82
2023/07/23 04:53:23;;;;;;;5.50;1.83;;;;;;;;;;6042519;23;20002;-82
2023/07/23 04:55:55;;;;;;;4.05;2.20;;;;;;;;;;6044330;23;20086;-81
2023/07/23 04:58:21;;;;;;;;;;;;;;;;;;6071414;23;20002;-81
2023/07/23 05:00:46;;;;;;;5.53;1.70;;;;;;;;;;6071688;23;19929;-81
2023/07/23 05:03:12;;;;;;;3.88;1.55;;;;;;;;;;6043380;23;20066;-81
2023/07/23 05:05:39;;;;;;;4.30;1.98;;;;;;;;;;6067241;23;20009;-81
2023/07/23 05:08:04;;;;;;;6.55;2.22;;;;;;;;;;6066945;23;19999;-81
2023/07/23 05:10:32;;;;;;;4.10;1.70;;;;;;;;;;6064697;23;20014;-81
2023/07/23 05:12:57;;;;;;;4.07;1.88;;;;;;;;;;6067942;23;19995;-81
2023/07/23 05:15:22;;;;;;;6.82;2.05;;;;;;;;;;6067736;23;20005;-81
2023/07/23 05:17:48;;;;;;;6.20;2.00;;;;;;;;;;6042376;23;20006;-81
2023/07/23 05:20:15;;;;;;;5.70;2.20;;;;;;;;;;6042415;23;20007;-81
2023/07/23 05:22:41;;;;;;;3.78;2.15;;;;;;;;;;6041293;23;19999;-81
2023/07/23 05:25:07;;;;;;;4.40;1.50;;;;;;;;;;6041560;23;20007;-81
2023/07/23 05:27:33;;;;;;;3.22;1.70;;;;;;;;;;6067299;23;20021;-81
2023/07/23 05:29:58;;;;;;;3.72;2.40;;;;;;;;;;6067206;23;20454;-81
2023/07/23 05:32:24;;;;;;;5.43;2.13;;;;;;;;;;6066708;23;20415;-81
2023/07/23 05:34:49;;;;;;;4.50;1.80;;;;;;;;;;6041794;23;20059;-81
2023/07/23 05:37:15;;;;;;;3.85;2.10;;;;;;;;;;6041575;23;20026;-81
2023/07/23 05:39:40;;;;;;;6.95;2.38;;;;;;;;;;6065531;23;20447;-81
2023/07/23 05:42:05;;;;;;;4.35;2.50;;;;;;;;;;6065247;23;20007;-81
2023/07/23 05:44:31;;;;;;;3.97;2.22;;;;;;;;;;6047001;23;20064;-81
2023/07/23 05:46:56;;;;;;;7.40;2.42;;;;;;;;;;6064762;23;20490;-81
2023/07/23 05:49:22;;;;;;;8.13;2.40;;;;;;;;;;6066636;23;20010;-82
2023/07/23 05:51:47;;;;;;;4.35;2.28;;;;;;;;;;6089595;23;20006;-81
2023/07/23 05:54:13;;;;;;;6.70;2.53;;;;;;;;;;6067071;23;19999;-81
2023/07/23 05:56:38;;;;;;;7.95;2.28;;;;;;;;;;6090396;23;19998;-81
2023/07/23 05:59:03;;;;;;;7.45;2.60;;;;;;;;;;6066314;23;20433;-81
2023/07/23 06:01:28;;;;;;;4.82;2.22;;;;;;;;;;6067067;23;20007;-81
2023/07/23 06:03:54;;;;;;;4.20;2.10;;;;;;;;;;6068454;23;20002;-81
2023/07/23 06:06:19;;;;;;;6.93;2.05;;;;;;;;;;6067241;23;20003;-81
2023/07/23 06:08:44;;;;;;;3.83;2.33;;;;;;;;;;6068843;23;20431;-81
2023/07/23 06:11:10;;;;;;;6.13;2.70;;;;;;;;;;6068789;23;20055;-81
2023/07/23 06:13:35;;;;;;;4.78;2.65;;;;;;;;;;6092330;23;20003;-81
2023/07/23 06:16:04;;;;;;;5.13;2.40;;;;;;;;;;6070504;23;20419;-81
2023/07/23 06:18:29;;;;;;;5.18;3.00;;;;;;;;;;6068124;23;20006;-81
2023/07/23 06:20:54;;;;;;;8.13;2.90;;;;;;;;;;6069161;23;19999;-81
2023/07/23 06:23:20;;;;;;;6.72;3.10;;;;;;;;;;6070411;23;20353;-81
2023/07/23 06:25:45;;;;;;;6.80;3.20;;;;;;;;;;6071472;23;20070;-81
2023/07/23 06:28:11;;;;;;;7.10;3.00;;;;;;;;;;6071426;23;20003;-81
2023/07/23 06:30:36;;;;;;;7.32;2.92;;;;;;;;;;6094568;23;20010;-81
2023/07/23 06:33:02;;;;;;;6.25;3.00;;;;;;;;;;6070748;23;20433;-81
2023/07/23 06:35:27;;;;;;;5.75;2.70;;;;;;;;;;6067849;23;20003;-81
2023/07/23 06:37:52;;;;;;;6.95;3.67;;;;;;;;;;6091746;23;20071;-81
2023/07/23 06:40:18;;;;;;;7.70;3.60;;;;;;;;;;6067236;23;20014;-81
2023/07/23 06:42:43;;;;;;;7.22;3.40;;;;;;;;;;6068624;23;20007;-81
2023/07/23 06:45:09;;;;;;;10.30;3.90;;;;;;;;;;6090443;23;20007;-81
2023/07/23 06:47:35;;;;;;;7.22;3.15;;;;;;;;;;6066504;23;20046;-81
2023/07/23 06:50:00;;;;;;;5.30;2.45;;;;;;;;;;6066627;23;20011;-81
2023/07/23 06:52:26;;;;;;;7.53;3.17;;;;;;;;;;6090526;23;20435;-81
2023/07/23 06:54:51;;;;;;;7.63;3.33;;;;;;;;;;6090439;23;19995;-81
2023/07/23 06:57:16;;;;;;;6.68;3.63;;;;;;;;;;6068303;23;19995;-81
2023/07/23 06:59:42;;;;;;;7.40;3.35;;;;;;;;;;6066607;23;20014;-81
2023/07/23 07:02:07;;;;;;;8.18;2.90;;;;;;;;;;6089789;23;20006;-81
2023/07/23 07:04:32;;;;;;;5.55;2.83;;;;;;;;;;6066417;23;20085;-81
2023/07/23 07:06:57;;;;;;;7.35;2.85;;;;;;;;;;6066700;23;20070;-80
2023/07/23 07:09:23;;;;;;;6.32;2.83;;;;;;;;;;6066364;23;20120;-80
2023/07/23 07:11:49;;;;;;;5.22;2.58;;;;;;;;;;6090510;23;20014;-81
2023/07/23 07:14:15;;;;;;;7.32;2.88;;;;;;;;;;6066337;23;20320;-81
2023/07/23 07:16:40;;;;;;;6.60;2.95;;;;;;;;;;6090424;23;20419;-81
2023/07/23 07:19:05;;;;;;;6.50;3.10;;;;;;;;;;6090219;23;20075;-81
2023/07/23 07:21:36;;;;;;;4.80;2.65;;;;;;;;;;6066391;23;20002;-80
2023/07/23 07:24:02;;;;;;;5.00;2.58;;;;;;;;;;6066646;23;20405;-81
2023/07/23 07:26:28;;;;;;;6.47;3.00;;;;;;;;;;6066264;23;20014;-80
2023/07/23 07:28:53;;;;;;;6.95;2.47;;;;;;;;;;6067821;23;20118;-80
2023/07/23 07:31:18;;;;;;;5.13;2.80;;;;;;;;;;6091636;23;20431;-80
2023/07/23 07:33:44;;;;;;;5.00;2.53;;;;;;;;;;6068188;23;20029;-81
2023/07/23 07:36:09;;;;;;;7.47;2.55;;;;;;;;;;6066585;23;20450;-81
2023/07/23 07:38:35;;;;;;;5.47;2.70;;;;;;;;;;6066881;23;20003;-81
2023/07/23 07:41:01;;;;;;;7.22;2.72;;;;;;;;;;6066877;23;19994;-81
2023/07/23 07:43:26;;;;;;;6.55;2.90;;;;;;;;;;6091166;23;19999;-81
2023/07/23 07:45:59;;;;;;;5.10;2.72;;;;;;;;;;6091553;23;20021;-81
2023/07/23 07:48:26;;;;;;;6.75;2.40;;;;;;;;;;6068014;23;20483;-80
2023/07/23 07:51:00;;;;;;;4.70;2.58;;;;;;;;;;6066764;23;19999;-81
2023/07/23 07:53:26;;;;;;;6.78;2.38;;;;;;;;;;6069440;23;20001;-80
2023/07/23 07:55:51;;;;;;;5.72;2.92;;;;;;;;;;6071250;23;19999;-81
2023/07/23 07:58:17;;;;;;;6.93;2.70;;;;;;;;;;6069058;23;19999;-81
2023/07/23 08:00:42;;;;;;;8.50;2.80;;;;;;;;;;6068421;23;20026;-81
2023/07/23 08:03:08;;;;;;;7.60;2.90;;;;;;;;;;6090116;23;20007;-81
2023/07/23 08:05:34;;;;;;;3.90;2.28;;;;;;;;;;6068342;23;20007;-81
2023/07/23 08:08:01;;;;;;;6.43;2.33;;;;;;;;;;6069565;23;20440;-81
2023/07/23 08:10:26;;;;;;;5.18;2.28;;;;;;;;;;6067300;23;20330;-81
2023/07/23 08:12:54;;;;;;;6.78;2.33;;;;;;;;;;6065247;23;20010;-81
2023/07/23 08:15:20;;;;;;;3.53;1.42;;;;;;;;;;6065978;23;20082;-81
2023/07/23 08:17:46;;;;;;;4.30;2.63;;;;;;;;;;6066032;23;20026;-81
2023/07/23 08:20:11;;;;;;;4.60;1.70;;;;;;;;;;6065688;23;20077;-81
2023/07/23 08:22:37;;;;;;;4.97;2.20;;;;;;;;;;6065536;23;20014;-81
2023/07/23 08:25:02;;;;;;;4.38;2.47;;;;;;;;;;6065505;23;20003;-81
2023/07/23 08:27:28;;;;;;;6.47;3.25;;;;;;;;;;6065908;23;20014;-81
2023/07/23 08:29:53;;;;;;;4.95;2.25;;;;;;;;;;6066007;23;20013;-81
2023/07/23 08:32:19;;;;;;;5.15;2.00;;;;;;;;;;6067486;23;20003;-81
2023/07/23 08:34:45;;;;;;;4.90;2.40;;;;;;;;;;6065350;23;20065;-81
2023/07/23 08:37:10;;;;;;;4.88;2.42;;;;;;;;;;6065618;23;20419;-81
2023/07/23 08:39:36;;;;;;;5.13;2.28;;;;;;;;;;6067279;23;19999;-81
2023/07/23 08:42:31;;;;;;;5.88;2.20;;;;;;;;;;6067727;23;20427;-81
2023/07/23 08:44:56;;;;;;;4.85;2.20;;;;;;;;;;6067203;23;20138;-81
2023/07/23 08:47:22;;;;;;;5.03;2.30;;;;;;;;;;6067421;23;20032;-81
2023/07/23 08:49:47;;;;;;;4.07;1.90;;;;;;;;;;6067403;23;20007;-82
2023/07/23 08:52:18;;;;;;;4.00;2.10;;;;;;;;;;6067572;23;20019;-80
2023/07/23 08:54:43;;;;;;;4.53;1.98;;;;;;;;;;6067299;23;20078;-81
2023/07/23 08:57:12;;;;;;;3.50;1.95;;;;;;;;;;6041635;23;20003;-81
2023/07/23 08:59:38;;;;;;;3.45;2.10;;;;;;;;;;6067382;23;20040;-81
2023/07/23 09:02:07;;;;;;;3.55;1.90;;;;;;;;;;6041980;23;20434;-81
2023/07/23 09:04:32;;;;;;;3.90;1.80;;;;;;;;;;6041799;23;20439;-81
2023/07/23 09:06:58;;;;;;;2.97;1.48;;;;;;;;;;6067496;23;20007;-81
2023/07/23 09:09:24;;;;;;;4.95;1.67;;;;;;;;;;6042059;23;20003;-81
2023/07/23 09:11:49;;;;;;;3.08;1.60;;;;;;;;;;6069271;23;20265;-81
2023/07/23 09:14:15;;;;;;;2.75;1.80;;;;;;;;;;6042907;23;19999;-81
2023/07/23 09:16:41;;;;;;;3.60;1.45;;;;;;;;;;6066972;23;19999;-81
2023/07/23 09:19:11;;;;;;;3.08;1.58;;;;;;;;;;6043456;23;19999;-81
2023/07/23 09:21:37;;;;;;;2.85;1.60;;;;;;;;;;6043587;23;20273;-81
2023/07/23 09:24:11;;;;;;;2.20;1.33;;;;;;;;;;6044619;23;20533;-82
2023/07/23 09:26:37;;;;;;;4.63;1.70;;;;;;;;;;6047191;23;20336;-82
2023/07/23 09:29:07;;;;;;;2.72;1.40;;;;;;;;;;6071575;23;20061;-81
2023/07/23 09:31:32;;;;;;;2.17;1.20;;;;;;;;;;6043784;23;19999;-82
2023/07/23 09:33:59;;;;;;;2.08;1.30;;;;;;;;;;6069237;23;19999;-81
2023/07/23 09:36:24;;;;;;;1.83;1.30;;;;;;;;;;6043421;23;19999;-81
2023/07/23 09:38:53;;;;;;;2.20;1.20;;;;;;;;;;6067130;23;20031;-81
2023/07/23 09:41:18;;;;;;;2.20;1.15;;;;;;;;;;6043157;23;20532;-81
2023/07/23 09:43:44;;;;;;;3.30;1.30;;;;;;;;;;6043228;23;20002;-81
2023/07/23 09:46:09;;;;;;;2.50;1.40;;;;;;;;;;6043048;23;20013;-81
2023/07/23 09:48:39;;;;;;;2.60;1.33;;;;;;;;;;6068923;23;20026;-81
2023/07/23 09:51:10;;;;;;;2.05;1.00;;;;;;;;;;6042797;23;19999;-81
2023/07/23 09:53:35;;;;;;;2.92;1.38;;;;;;;;;;6043101;23;20002;-82
2023/07/23 09:56:01;;;;;;;6.00;1.10;;;;;;;;;;6068835;23;20022;-81
2023/07/23 09:58:27;;;;;;;4.63;1.67;;;;;;;;;;6043479;23;20007;-81
2023/07/23 10:00:52;;;;;;;2.05;1.20;;;;;;;;;;6068668;23;20035;-81
2023/07/23 10:03:18;;;;;;;2.30;1.40;;;;;;;;;;6043077;23;20002;-81
2023/07/23 10:05:44;;;;;;;4.70;1.48;;;;;;;;;;6067116;23;20037;-81
2023/07/23 10:08:09;;;;;;;2.35;1.55;;;;;;;;;;6042982;23;20105;-81
2023/07/23 10:10:35;;;;;;;3.35;1.73;;;;;;;;;;6068737;23;20035;-81
2023/07/23 10:13:00;;;;;;;3.08;1.73;;;;;;;;;;6068261;23;20003;-82
2023/07/23 10:15:25;;;;;;;2.70;1.60;;;;;;;;;;6068596;23;19995;-82
2023/07/23 10:17:56;;;;;;;2.72;1.67;;;;;;;;;;6043131;23;20003;-82
2023/07/23 10:20:22;;;;;;;6.75;2.10;;;;;;;;;;6068822;23;20034;-81
2023/07/23 10:22:48;;;;;;;5.15;2.25;;;;;;;;;;6043202;23;20011;-81
2023/07/23 10:25:23;;;;;;;4.10;2.20;;;;;;;;;;6068432;23;20033;-81
2023/07/23 10:27:56;;;;;;;4.95;2.30;;;;;;;;;;6043168;23;20403;-81
2023/07/23 10:30:22;;;;;;;3.75;2.20;;;;;;;;;;6042565;23;20081;-82
2023/07/23 10:33:07;;;;;;;3.72;2.15;;;;;;;;;;6067390;23;20010;-82
2023/07/23 10:35:51;;;;;;;6.30;2.40;;;;;;;;;;6042848;23;20033;-82
2023/07/23 10:38:19;;;;;;;7.82;2.78;;;;;;;;;;6043026;23;20089;-82
2023/07/23 10:40:45;;;;;;;4.63;2.50;;;;;;;;;;6043183;23;20391;-82
2023/07/23 10:43:14;;;;;;;5.53;2.63;;;;;;;;;;6068121;23;20003;-81
2023/07/23 10:45:44;;;;;;;7.25;2.85;;;;;;;;;;6069607;23;20446;-82
2023/07/23 10:48:15;;;;;;;6.18;2.90;;;;;;;;;;6070029;23;20007;-82
2023/07/23 10:50:40;;;;;;;4.53;2.70;;;;;;;;;;6044229;23;20368;-81
2023/07/23 10:53:07;;;;;;;7.43;2.80;;;;;;;;;;6044905;23;20711;-81
2023/07/23 10:55:46;;;;;;;5.38;2.60;;;;;;;;;;6044665;23;19999;-82
2023/07/23 10:58:16;;;;;;;3.70;2.35;;;;;;;;;;6072968;23;20368;-82
2023/07/23 11:00:45;;;;;;;4.88;2.58;;;;;;;;;;6071765;23;20026;-82
2023/07/23 11:03:16;;;;;;;9.32;2.97;;;;;;;;;;6044175;23;20102;-82
2023/07/23 11:05:42;;;;;;;4.22;2.70;;;;;;;;;;6042745;23;20087;-82
2023/07/23 11:08:19;;;;;;;4.38;2.83;;;;;;;;;;6068770;23;20423;-82
2023/07/23 11:10:59;;;;;;;5.13;3.10;;;;;;;;;;6045412;23;20336;-82
2023/07/23 11:13:34;;;;;;;4.03;2.45;;;;;;;;;;6068476;23;20312;-81
2023/07/23 11:16:00;;;;;;;6.75;3.67;;;;;;;;;;6042551;23;20411;-82
2023/07/23 11:18:28;;;;;;;5.32;2.63;;;;;;;;;;6042206;23;20002;-81
2023/07/23 11:20:54;;;;;;;4.30;2.85;;;;;;;;;;6042315;23;20396;-82
2023/07/23 11:23:22;;;;;;;6.22;3.00;;;;;;;;;;6067659;23;19999;-82
2023/07/23 11:25:48;;;;;;;6.80;2.72;;;;;;;;;;6042139;23;20340;-82
2023/07/23 11:28:16;;;;;;;5.93;3.20;;;;;;;;;;6067603;23;19999;-82
2023/07/23 11:30:43;;;;;;;6.47;2.80;;;;;;;;;;6067677;23;20022;-82
2023/07/23 11:33:11;;;;;;;5.90;3.08;;;;;;;;;;6042048;23;19999;-82
2023/07/23 11:35:39;;;;;;;6.07;3.00;;;;;;;;;;6067492;23;20082;-82
2023/07/23 11:38:05;;;;;;;6.07;2.53;;;;;;;;;;6042035;23;20423;-82
2023/07/23 11:40:30;;;;;;;4.35;2.78;;;;;;;;;;6067136;23;20002;-82
2023/07/23 11:42:56;;;;;;;5.30;2.90;;;;;;;;;;6067702;23;20070;-82
2023/07/23 11:45:21;;;;;;;4.60;2.53;;;;;;;;;;6067715;23;20002;-82
2023/07/23 11:47:56;;;;;;;4.38;2.53;;;;;;;;;;6065558;23;20057;-82
2023/07/23 11:50:22;;;;;;;4.57;2.60;;;;;;;;;;6065481;23;20011;-82
2023/07/23 11:52:48;;;;;;;4.60;2.88;;;;;;;;;;6041774;23;20051;-82
2023/07/23 11:55:25;;;;;;;3.42;2.20;;;;;;;;;;6067390;23;20022;-82
2023/07/23 11:57:57;;;;;;;7.65;2.97;;;;;;;;;;6067210;23;20324;-82
2023/07/23 12:00:22;;;;;;;;;;;;;;;;;;6066765;23;19995;-82
2023/07/23 12:02:48;;;;;;;4.10;2.63;;;;;;;;;;6065753;23;19912;-82
2023/07/23 12:05:14;;;;;;;7.72;3.65;;;;;;;;;;6067510;23;20229;-82
2023/07/23 12:07:39;;;;;;;5.15;2.85;;;;;;;;;;6067220;23;20007;-82
2023/07/23 12:10:05;;;;;;;6.22;3.05;;;;;;;;;;6065673;23;20023;-82
2023/07/23 12:12:32;;;;;;;4.63;2.65;;;;;;;;;;6067265;23;20050;-82
2023/07/23 12:15:04;;;;;;;4.15;2.55;;;;;;;;;;6068112;23;20105;-82
2023/07/23 12:17:29;;;;;;;8.77;2.60;;;;;;;;;;6068752;23;20002;-82
2023/07/23 12:19:57;;;;;;;5.57;2.58;;;;;;;;;;6042926;23;20150;-82
2023/07/23 12:22:24;;;;;;;3.60;2.47;;;;;;;;;;6043364;23;20002;-82
2023/07/23 12:24:49;;;;;;;5.60;2.88;;;;;;;;;;6066240;23;20011;-82
2023/07/23 12:27:15;;;;;;;4.20;2.17;;;;;;;;;;6041872;23;20017;-82
2023/07/23 12:29:43;;;;;;;4.53;3.03;;;;;;;;;;6066874;23;19998;-82
2023/07/23 12:32:15;;;;;;;3.85;2.40;;;;;;;;;;6067352;23;20059;-82
2023/07/23 12:34:42;;;;;;;4.90;3.03;;;;;;;;;;6069261;23;20050;-82
2023/07/23 12:37:08;;;;;;;3.70;2.30;;;;;;;;;;6066852;23;20034;-82
2023/07/23 12:39:33;;;;;;;4.57;2.55;;;;;;;;;;6042350;23;20436;-82
2023/07/23 12:41:59;;;;;;;6.97;2.85;;;;;;;;;;6043020;23;20030;-82
2023/07/23 12:44:25;;;;;;;5.30;2.42;;;;;;;;;;6069900;23;20011;-82
2023/07/23 12:46:50;;;;;;;3.92;2.80;;;;;;;;;;6066897;23;19998;-82
2023/07/23 12:49:15;;;;;;;5.30;2.45;;;;;;;;;;6064765;23;20010;-82
2023/07/23 12:51:40;;;;;;;3.97;2.60;;;;;;;;;;6067036;23;19995;-82
2023/07/23 12:54:06;;;;;;;4.68;2.70;;;;;;;;;;6065484;23;20006;-82
2023/07/23 12:56:32;;;;;;;4.95;3.00;;;;;;;;;;6065229;23;20392;-82
2023/07/23 12:58:57;;;;;;;6.07;3.00;;;;;;;;;;6066801;23;20006;-82
2023/07/23 13:01:22;;;;;;;5.88;2.70;;;;;;;;;;6066829;23;20007;-82
2023/07/23 13:03:48;;;;;;;5.53;2.88;;;;;;;;;;6066665;23;20014;-82
2023/07/23 13:06:13;;;;;;;5.78;2.72;;;;;;;;;;6068323;23;20003;-82
2023/07/23 13:08:38;;;;;;;4.20;2.60;;;;;;;;;;6068907;23;20308;-82
2023/07/23 13:11:03;;;;;;;3.92;2.30;;;;;;;;;;6068683;23;20078;-82
2023/07/23 13:13:29;;;;;;;3.75;2.33;;;;;;;;;;6067029;23;19991;-82
2023/07/23 13:15:54;;;;;;;4.43;2.17;;;;;;;;;;6091135;23;19999;-83
2023/07/23 13:18:22;;;;;;;7.57;2.03;;;;;;;;;;6066847;23;20003;-83
2023/07/23 13:20:47;;;;;;;4.78;2.28;;;;;;;;;;6068652;23;20469;-82
2023/07/23 13:23:12;;;;;;;4.47;2.45;;;;;;;;;;6090867;23;20090;-82
2023/07/23 13:25:38;;;;;;;5.97;2.45;;;;;;;;;;6067412;23;20002;-82
2023/07/23 13:28:03;;;;;;;3.22;2.05;;;;;;;;;;6069117;23;20086;-82
2023/07/23 13:30:28;;;;;;;4.65;2.35;;;;;;;;;;6091057;23;20006;-82
2023/07/23 13:32:53;;;;;;;7.53;2.58;;;;;;;;;;6068491;23;20372;-83
2023/07/23 13:35:19;;;;;;;3.90;2.33;;;;;;;;;;6069400;23;20033;-82
2023/07/23 13:37:44;;;;;;;4.55;1.88;;;;;;;;;;6090509;23;19998;-82
2023/07/23 13:40:09;;;;;;;3.75;2.08;;;;;;;;;;6066023;23;20111;-82
2023/07/23 13:42:35;;;;;;;3.88;2.40;;;;;;;;;;6066021;23;20003;-82
2023/07/23 13:45:03;;;;;;;5.28;2.60;;;;;;;;;;6067328;23;20033;-81
2023/07/23 13:47:28;;;;;;;4.45;2.53;;;;;;;;;;6069924;23;20917;-82
2023/07/23 13:49:54;;;;;;;4.82;2.30;;;;;;;;;;6068771;23;20007;-82
2023/07/23 13:52:23;;;;;;;4.72;2.75;;;;;;;;;;6069754;23;20286;-82
2023/07/23 13:54:51;;;;;;;4.93;2.10;;;;;;;;;;6071699;23;19999;-83
2023/07/23 13:57:16;;;;;;;3.45;2.35;;;;;;;;;;6070286;23;20082;-83
2023/07/23 13:59:42;;;;;;;5.97;2.70;;;;;;;;;;6070125;23;20045;-83
2023/07/23 14:02:10;;;;;;;3.22;2.47;;;;;;;;;;6094086;23;20029;-83
2023/07/23 14:04:35;;;;;;;5.57;2.30;;;;;;;;;;6069963;23;20583;-83
2023/07/23 14:07:01;;;;;;;4.43;2.30;;;;;;;;;;6068362;23;20006;-83
2023/07/23 14:09:26;;;;;;;4.78;2.58;;;;;;;;;;6066442;23;20006;-83
2023/07/23 14:11:51;;;;;;;5.53;2.63;;;;;;;;;;6067399;23;19998;-83
2023/07/23 14:14:17;;;;;;;3.78;2.30;;;;;;;;;;6066624;23;20003;-82
2023/07/23 14:16:42;;;;;;;5.75;2.72;;;;;;;;;;6067573;23;20002;-82
2023/07/23 14:19:07;;;;;;;5.78;2.85;;;;;;;;;;6066368;23;20455;-82
2023/07/23 14:21:33;;;;;;;4.80;2.83;;;;;;;;;;6089480;23;20438;-82
2023/07/23 14:23:58;;;;;;;5.03;2.08;;;;;;;;;;6066507;23;20011;-82
2023/07/23 14:26:23;;;;;;;5.40;2.63;;;;;;;;;;6066891;23;20428;-83
2023/07/23 14:28:50;;;;;;;4.82;2.95;;;;;;;;;;6090286;23;19999;-82
2023/07/23 14:31:15;;;;;;;4.47;2.70;;;;;;;;;;6066206;23;20162;-82
2023/07/23 14:33:41;;;;;;;5.53;2.67;;;;;;;;;;6089855;23;20408;-82
2023/07/23 14:36:06;;;;;;;4.68;2.40;;;;;;;;;;6090599;23;20003;-82
2023/07/23 14:38:31;;;;;;;3.70;2.78;;;;;;;;;;6066054;23;20056;-82